Browns Woods, MD

7:54 PM EDT on March 26, 2017 (GMT -0400)
St Margarets | | Change Station

Elev 8 ft 39.01 °N, 76.46 °W | Updated 6 seconds ago

Overcast
Overcast
46.2 °F
Feels Like 42 °F
N
8.1
Wind Variable Wind from NNE
Gusts 8.1 mph

Today
High -- | Low -- °F
--% Chance of Precip.
Yesterday
High -- | Low -- °F
Precip. -- in
Pressure 30.27 in
Visibility 6.0 miles
Clouds Overcast 900 ft
Windchill 42 °F
Dew Point 46 °F
Humidity 98%
Rainfall 0.00 in
Snow Depth Not available.
6:59 AM 7:23 PM
Waning Crescent, 2% visible
METAR KNAK 262254Z AUTO 09009KT 6SM BR OVC009 08/07 A3027 RMK AO2 SLP250 T00830072
Pressure 30.27 in
Visibility 6.0 miles
Clouds Overcast 900 ft
Windchill 42 °F
Dew Point 46 °F
Humidity 98%
Rainfall 0.00 in
Snow Depth Not available.
6:59 AM 7:23 PM
Waning Crescent, 2% visible
METAR KNAK 262254Z AUTO 09009KT 6SM BR OVC009 08/07 A3027 RMK AO2 SLP250 T00830072

Get Severe Weather Alerts

Thanks for signing up!

Be on the lookout for a verification email in your inbox.

You'll start receiving the daily forecast at 8 AM.

×

10-Day Weather Forecast

Almanac

Astronomy

Mar. 26, 2017 Rise Set
Actual Time
Civil Twilight
Nautical Twilight
Astronomical Twilight
Moon
Length of Visible Light
Length of Day
Tomorrow will be .
, % of the Moon is Illuminated

Today's Extremes

State Highs State Lows

Community

WunderPhotos

Upload Photos

1,962,540 photos uploaded!

WunderBlog® & News

Nearby

Air Quality

  Air Quality AQ Index Pollutant
Not available.

Snow Depth

Station Depth Elevation

Earthquake Activity

City Distance Mag. Time & Date
Minimum magnitude displayed is 2.5.

Earthquake Activity

City Distance Mag. Time & Date
Minimum magnitude displayed is 2.5.

Coastal Water Temperatures

Place Temperature

Stations

Nearby Weather Stations

Station Location Temp. Windchill Dew Point Humidity Wind Precip. Elev Updated Type
                   

Watches & Warnings

There are currently no watches in effect.